SVMT/MUN METAR and TAF weather

Enter ICAO airport designator
Station Type Date Time Source
SVMT METAR 2023/01/21 16:03 UTC NOAA

SVMT 211603Z AUTO 08008KT NCD 29/27 Q1017


Station Type Date Time Source
SVMT Decoded METAR 2023/01/21 16:03 UTC NOAA

Maturin, Venezuela (SVMT) 09-45N 063-11W 66M
Jan 21, 2023 - 11:03 AM EST / 2023.01.21 1603 UTC
Wind: from the E (080 degrees) at 9 MPH (8 KT):0
Temperature: 84 F (29 C)
Dew Point: 80 F (27 C)
Relative Humidity: 88%
Pressure (altimeter): 30.03 in. Hg (1017 hPa)
ob: SVMT 211603Z AUTO 08008KT NCD 29/27 Q1017
cycle: 16

Station Type Date Time Source
SVMT TAF UTC NOAA

Error!

Example: see airport list